Time;durP1;ratioP1;P1;durP2;ratioP2;P2;SDS_P1;SDS_P2;PMS_P1;PMS_P2;Temp;Humidity;BMP_temperature;BMP_pressure;BME280_temperature;BME280_humidity;BME280_pressure;Samples;Min_cycle;Max_cycle;Signal;HPM_P1;HPM_P2
2022/11/29 00:01:19;;;;;;;22.00;12.50;;;;;;;-1.50;84.87;96111.41;1700694;84;21014;-67
2022/11/29 00:03:47;;;;;;;18.97;10.20;;;;;;;-1.52;84.17;96106.59;1700745;84;21030;-67
2022/11/29 00:06:18;;;;;;;23.13;10.83;;;;;;;-1.60;84.02;96111.91;1700851;84;21079;-67
2022/11/29 00:08:45;;;;;;;21.37;10.60;;;;;;;-1.61;84.82;96114.04;1699237;84;21528;-67
2022/11/29 00:14:09;;;;;;;21.93;11.63;;;;;;;-1.47;84.68;96114.09;1700665;84;20995;-67
2022/11/29 00:16:36;;;;;;;16.83;9.40;;;;;;;-1.47;84.29;96106.34;1700757;84;21009;-67
2022/11/29 00:19:05;;;;;;;41.70;17.77;;;;;;;-1.52;84.27;96107.45;1700628;84;20982;-67
2022/11/29 00:21:32;;;;;;;33.33;15.87;;;;;;;-1.69;83.68;96111.14;1700118;84;21041;-67
2022/11/29 00:23:59;;;;;;;23.23;11.40;;;;;;;-1.84;83.45;96110.19;1698440;84;21035;-67
2022/11/29 00:26:26;;;;;;;16.93;9.50;;;;;;;-1.93;83.63;96111.55;1698491;84;21012;-67
2022/11/29 00:28:53;;;;;;;19.37;9.90;;;;;;;-1.91;84.68;96104.73;1698308;84;20984;-67
2022/11/29 00:31:26;;;;;;;15.10;8.40;;;;;;;-1.86;84.75;96110.55;1698695;84;21036;-67
2022/11/29 00:33:53;;;;;;;;;;;;;;;-1.84;84.50;96120.54;1700900;84;21027;-67
2022/11/29 00:36:19;;;;;;;19.20;9.67;;;;;;;-1.82;84.60;96116.70;1698510;84;20405;-67
2022/11/29 00:38:46;;;;;;;17.13;9.53;;;;;;;-1.86;84.66;96116.13;1698382;84;21510;-67
2022/11/29 00:41:13;;;;;;;17.73;9.27;;;;;;;-1.80;85.16;96114.64;1698427;84;21024;-67
2022/11/29 00:43:40;;;;;;;16.93;9.00;;;;;;;-1.76;84.78;96115.23;1698365;84;21123;-67
2022/11/29 00:46:07;;;;;;;18.73;8.60;;;;;;;-1.67;85.50;96112.50;1698528;84;21047;-67
2022/11/29 00:48:35;;;;;;;18.63;9.90;;;;;;;-1.65;84.52;96109.56;1698282;84;21550;-67
2022/11/29 00:51:04;;;;;;;22.53;10.37;;;;;;;-1.71;84.31;96109.32;1698375;84;21023;-67
2022/11/29 00:53:31;;;;;;;21.50;10.27;;;;;;;-1.81;83.77;96100.38;1698400;84;20996;-67
2022/11/29 00:55:58;;;;;;;21.23;11.57;;;;;;;-1.86;84.54;96100.61;1698437;84;21035;-67
2022/11/29 00:58:25;;;;;;;20.30;10.07;;;;;;;-1.91;84.07;96099.14;1698703;84;21031;-67
2022/11/29 01:00:55;;;;;;;20.70;11.10;;;;;;;-2.00;84.03;96097.08;1698433;84;21055;-67
2022/11/29 01:03:22;;;;;;;20.60;10.10;;;;;;;-2.05;84.11;96097.73;1698216;84;21163;-67
2022/11/29 01:05:50;;;;;;;18.50;10.40;;;;;;;-2.01;84.96;96091.45;1698791;84;21016;-67
2022/11/29 01:08:17;;;;;;;16.17;9.00;;;;;;;-1.91;85.17;96093.09;1698047;84;21163;-67
2022/11/29 01:10:44;;;;;;;20.03;9.03;;;;;;;-1.88;84.31;96091.91;1698600;84;21012;-67
2022/11/29 01:13:10;;;;;;;20.00;10.10;;;;;;;-1.94;84.24;96082.61;1698307;84;21023;-67
2022/11/29 01:15:37;;;;;;;18.70;9.60;;;;;;;-1.95;84.51;96090.80;1698504;84;21059;-67
2022/11/29 01:18:04;;;;;;;17.23;9.23;;;;;;;-1.99;84.10;96092.39;1698241;84;21095;-67
2022/11/29 01:20:31;;;;;;;14.50;8.37;;;;;;;-1.98;84.55;96089.39;1698482;84;21546;-67
2022/11/29 01:22:58;;;;;;;17.07;9.43;;;;;;;-1.90;85.00;96089.25;1700903;84;21524;-67
2022/11/29 01:25:28;;;;;;;17.77;8.73;;;;;;;-1.88;84.75;96087.61;1703149;84;21095;-67
2022/11/29 01:27:55;;;;;;;16.70;9.40;;;;;;;-1.84;84.60;96090.80;1703108;84;21058;-67
2022/11/29 01:30:21;;;;;;;16.63;9.23;;;;;;;-1.74;85.10;96090.69;1702999;84;21034;-67
2022/11/29 01:32:49;;;;;;;18.53;9.53;;;;;;;-1.70;84.47;96087.41;1703238;84;21018;-67
2022/11/29 01:35:15;;;;;;;18.30;9.77;;;;;;;-1.75;83.97;96078.59;1703275;84;21015;-67
2022/11/29 01:37:42;;;;;;;20.00;10.53;;;;;;;-1.80;83.65;96081.01;1703143;84;21066;-67
2022/11/29 01:40:10;;;;;;;20.33;10.03;;;;;;;-1.87;83.27;96075.55;1703267;84;21006;-67
2022/11/29 01:42:37;;;;;;;15.57;8.13;;;;;;;-2.03;83.23;96076.28;1702991;84;21038;-68
2022/11/29 01:45:23;;;;;;;17.63;8.73;;;;;;;-2.04;83.72;96078.80;1703272;84;21508;-67
2022/11/29 01:47:54;;;;;;;12.50;6.97;;;;;;;-1.91;84.68;96084.92;1702589;84;21102;-67
2022/11/29 01:50:21;;;;;;;15.97;8.33;;;;;;;-1.89;84.13;96075.91;1703205;84;21002;-67
2022/11/29 01:52:48;;;;;;;13.87;7.07;;;;;;;-1.83;84.29;96075.73;1703332;84;21026;-67
2022/11/29 01:55:15;;;;;;;14.43;8.03;;;;;;;-1.87;83.39;96070.38;1702867;84;21146;-67
2022/11/29 01:57:43;;;;;;;14.63;7.57;;;;;;;-1.96;83.00;96069.65;1702706;84;21137;-67
2022/11/29 02:00:16;;;;;;;12.40;7.07;;;;;;;-2.03;83.55;96068.95;1703105;84;21026;-67
2022/11/29 02:02:54;;;;;;;12.28;6.75;;;;;;;-2.15;83.03;96064.19;1703126;84;21121;-67
2022/11/29 02:05:21;;;;;;;12.60;7.40;;;;;;;-2.18;83.38;96066.66;1701599;84;21007;-67
2022/11/29 02:07:52;;;;;;;13.27;7.10;;;;;;;-2.11;83.61;96065.20;1703122;84;21081;-67
2022/11/29 02:10:25;;;;;;;12.20;6.83;;;;;;;-2.11;83.72;96069.08;1703240;84;21512;-67
2022/11/29 02:13:21;;;;;;;11.10;6.42;;;;;;;-2.11;83.54;96066.50;1671343;84;20967;-67
2022/11/29 02:16:08;;;;;;;12.90;7.07;;;;;;;-2.10;83.72;96063.08;1702681;84;21034;-67
2022/11/29 02:18:55;;;;;;;10.37;5.60;;;;;;;-2.05;84.17;96061.54;1703383;84;21552;-67
2022/11/29 02:21:39;;;;;;;9.47;5.53;;;;;;;-2.05;82.96;96064.12;1703702;84;20998;-67
2022/11/29 02:24:50;;;;;;;12.10;5.57;;;;;;;-2.14;83.24;96062.09;1698684;84;21052;-67
2022/11/29 02:27:53;;;;;;;9.53;5.67;;;;;;;-2.18;82.76;96059.78;1699094;84;21036;-67
2022/11/29 02:30:45;;;;;;;8.70;5.35;;;;;;;-2.29;82.90;96058.52;1686835;84;21060;-67
2022/11/29 02:33:17;;;;;;;9.90;5.53;;;;;;;-2.37;83.30;96059.03;1698532;84;21032;-67
2022/11/29 02:36:20;;;;;;;10.13;5.40;;;;;;;-2.38;83.09;96059.86;1698019;84;21071;-67
2022/11/29 02:39:04;;;;;;;9.83;5.87;;;;;;;-2.39;83.34;96062.86;1638270;87;21051;-67
2022/11/29 02:41:36;;;;;;;;;;;;;;;-2.55;82.66;96060.48;1676110;86;21020;-67
2022/11/29 02:44:39;;;;;;;9.93;5.27;;;;;;;-2.51;83.68;96060.67;1674052;86;20162;-67
2022/11/29 02:47:25;;;;;;;9.90;5.40;;;;;;;-2.46;84.06;96063.03;1672923;86;21116;-67
2022/11/29 02:50:17;;;;;;;10.03;5.10;;;;;;;-2.51;83.40;96063.26;1674041;86;21546;-67
2022/11/29 02:53:21;;;;;;;9.07;4.70;;;;;;;-2.51;83.56;96063.67;1674043;86;21562;-67
2022/11/29 02:56:26;;;;;;;7.85;4.83;;;;;;;-2.49;83.40;96064.20;1674264;86;21032;-67
2022/11/29 02:59:22;;;;;;;8.80;5.10;;;;;;;-2.53;83.87;96064.89;1648951;87;21044;-67
2022/11/29 03:02:30;;;;;;;9.43;4.47;;;;;;;-2.40;84.23;96066.25;1670662;86;21046;-67
2022/11/29 03:05:35;;;;;;;9.23;4.90;;;;;;;-2.48;83.11;96071.13;1698334;84;21608;-67
2022/11/29 03:08:43;;;;;;;11.57;5.20;;;;;;;-2.44;84.02;96069.56;1698333;84;21058;-67
2022/11/29 03:11:25;;;;;;;7.87;4.20;;;;;;;-2.53;82.68;96071.77;1698466;84;21042;-67
2022/11/29 03:14:15;;;;;;;6.23;4.03;;;;;;;-2.64;83.27;96075.23;1698114;84;21038;-67
2022/11/29 03:16:56;;;;;;;7.57;4.57;;;;;;;-2.51;84.21;96080.47;1698576;84;21516;-67
2022/11/29 03:19:44;;;;;;;5.93;3.63;;;;;;;-2.53;83.57;96076.94;1698194;84;20999;-67
2022/11/29 03:22:42;;;;;;;7.93;4.67;;;;;;;-2.52;83.52;96075.72;1697837;84;21016;-67
2022/11/29 03:25:20;;;;;;;8.20;4.17;;;;;;;-2.52;82.93;96069.64;1702488;84;21040;-67
2022/11/29 03:28:01;;;;;;;6.80;4.00;;;;;;;-2.56;83.38;96078.12;1703029;84;21565;-67
2022/11/29 03:30:31;;;;;;;6.83;4.17;;;;;;;-2.49;83.59;96076.25;1688395;84;21121;-67
2022/11/29 03:33:25;;;;;;;5.90;4.00;;;;;;;-2.49;83.56;96071.08;1703179;84;21095;-67
2022/11/29 03:36:08;;;;;;;6.50;3.35;;;;;;;-2.47;83.38;96071.61;1703323;84;21047;-67
2022/11/29 03:38:41;;;;;;;;;;;;;;;-2.53;82.62;96070.06;1704933;84;21056;-67
2022/11/29 03:41:31;;;;;;;5.50;3.57;;;;;;;-2.64;82.33;96077.40;1703522;84;20142;-67
2022/11/29 03:44:20;;;;;;;8.00;4.00;;;;;;;-2.69;82.71;96080.63;1702605;84;21059;-67
2022/11/29 03:47:09;;;;;;;7.50;3.90;;;;;;;-2.58;83.97;96084.50;1703245;84;21023;-67
2022/11/29 03:50:08;;;;;;;10.10;4.67;;;;;;;-2.59;82.79;96078.88;1702716;84;21008;-67
2022/11/29 03:52:58;;;;;;;8.53;4.60;;;;;;;-2.68;82.65;96081.96;1703211;84;21035;-67
2022/11/29 03:55:44;;;;;;;6.83;3.70;;;;;;;-2.76;82.30;96079.49;1703103;84;21048;-67
2022/11/29 03:58:48;;;;;;;5.87;3.57;;;;;;;-2.73;83.40;96083.90;1683606;84;21088;-67
2022/11/29 04:01:28;;;;;;;6.40;3.60;;;;;;;-2.70;82.80;96088.76;1702965;84;21038;-67
2022/11/29 04:04:35;;;;;;;6.80;3.70;;;;;;;-2.71;83.27;96085.72;1703057;84;21058;-67
2022/11/29 04:07:32;;;;;;;5.20;3.00;;;;;;;-2.76;82.40;96076.91;1702961;84;21111;-67
2022/11/29 04:10:33;;;;;;;5.10;3.27;;;;;;;-2.76;82.89;96089.82;1703177;84;21024;-67
2022/11/29 04:13:34;;;;;;;4.70;3.20;;;;;;;-2.81;82.61;96083.59;1703253;84;21023;-67
2022/11/29 04:16:49;;;;;;;5.97;3.40;;;;;;;-2.79;83.20;96081.08;1703340;84;21553;-67
2022/11/29 04:19:31;;;;;;;4.97;3.07;;;;;;;-2.87;82.83;96085.52;1703433;84;21550;-67
2022/11/29 04:22:22;;;;;;;4.90;3.27;;;;;;;-2.89;83.16;96087.16;1702964;84;21528;-67
2022/11/29 04:25:20;;;;;;;4.67;3.33;;;;;;;-2.83;83.36;96091.68;1695898;84;21505;-67
2022/11/29 04:28:16;;;;;;;5.33;3.03;;;;;;;-2.77;83.41;96093.63;1695903;85;21012;-67
2022/11/29 04:31:13;;;;;;;4.07;2.63;;;;;;;-2.84;82.68;96093.80;1695294;85;21016;-67
2022/11/29 04:33:59;;;;;;;5.70;3.00;;;;;;;-2.96;82.34;96097.17;1639150;85;21072;-67
2022/11/29 04:36:47;;;;;;;5.70;2.57;;;;;;;-3.09;82.30;96104.41;1695823;85;21072;-67
2022/11/29 04:39:37;;;;;;;7.13;3.60;;;;;;;-3.16;82.17;96102.80;1652935;85;21116;-68
2022/11/29 04:42:36;;;;;;;5.47;3.00;;;;;;;-3.30;82.10;96103.48;1695854;85;21040;-67
2022/11/29 04:45:33;;;;;;;6.50;3.00;;;;;;;-3.31;82.71;96112.06;1695178;85;21009;-67
2022/11/29 04:48:13;;;;;;;5.00;3.20;;;;;;;-3.22;83.31;96108.59;1695765;85;21522;-67
2022/11/29 04:51:14;;;;;;;4.97;2.90;;;;;;;-3.13;83.20;96114.53;1695418;85;21112;-67
2022/11/29 04:53:55;;;;;;;6.97;3.67;;;;;;;-3.30;82.69;96112.52;1695519;85;21061;-67
2022/11/29 04:57:12;;;;;;;11.37;6.07;;;;;;;-3.39;82.68;96121.17;1695535;85;21102;-67
2022/11/29 04:59:53;;;;;;;15.47;7.20;;;;;;;-3.46;83.09;96118.73;1666230;85;21004;-67
2022/11/29 05:02:54;;;;;;;15.03;7.57;;;;;;;-3.55;82.85;96120.52;1695135;85;21108;-67
2022/11/29 05:05:32;;;;;;;21.40;11.77;;;;;;;-3.42;84.01;96117.18;1695676;85;21016;-67
2022/11/29 05:08:04;;;;;;;13.80;7.90;;;;;;;-3.37;83.66;96114.39;1695240;85;21052;-67
2022/11/29 05:10:58;;;;;;;8.67;4.57;;;;;;;-3.39;83.14;96118.59;1695078;85;21508;-67
2022/11/29 05:13:46;;;;;;;14.77;8.57;;;;;;;-3.30;84.10;96117.30;1695424;85;21100;-67
2022/11/29 05:16:41;;;;;;;22.00;12.63;;;;;;;-3.10;84.37;96118.14;1695238;85;21040;-67
2022/11/29 05:19:28;;;;;;;18.10;9.70;;;;;;;-3.03;83.78;96111.52;1695377;85;21048;-67
2022/11/29 05:22:31;;;;;;;7.73;3.97;;;;;;;-3.16;82.26;96121.73;1695651;85;21060;-69
2022/11/29 05:25:27;;;;;;;5.10;3.03;;;;;;;-3.19;83.01;96122.03;1694372;85;21101;-67
2022/11/29 05:28:42;;;;;;;5.30;3.30;;;;;;;-3.13;83.32;96117.98;1693673;85;21532;-67
2022/11/29 05:31:49;;;;;;;4.27;2.83;;;;;;;-3.10;83.29;96119.81;1694378;85;21030;-67
2022/11/29 05:34:26;;;;;;;4.30;2.43;;;;;;;-3.17;82.84;96116.11;1694555;85;21050;-67
2022/11/29 05:37:15;;;;;;;4.77;2.57;;;;;;;-3.25;82.63;96117.50;1694416;85;21058;-67
2022/11/29 05:39:56;;;;;;;4.67;2.70;;;;;;;-3.31;82.57;96123.67;1694539;85;21030;-68
2022/11/29 05:42:43;;;;;;;2.53;1.90;;;;;;;-3.30;82.98;96127.62;1694408;85;21086;-67
2022/11/29 05:45:33;;;;;;;12.73;6.17;;;;;;;-3.35;82.67;96130.79;1693222;85;20995;-67
2022/11/29 05:48:05;;;;;;;7.33;3.87;;;;;;;-3.41;83.23;96127.96;1694485;85;21036;-69
2022/11/29 05:50:40;;;;;;;5.33;3.53;;;;;;;-3.47;82.68;96133.75;1693675;85;21011;-67
2022/11/29 05:53:39;;;;;;;3.73;2.23;;;;;;;-3.46;83.14;96130.34;1691971;85;21539;-67
2022/11/29 05:56:23;;;;;;;8.20;3.10;;;;;;;-3.42;83.34;96133.53;1694455;85;21018;-67
2022/11/29 05:59:02;;;;;;;5.07;2.90;;;;;;;-3.36;83.51;96133.78;1690850;85;21050;-67
2022/11/29 06:01:43;;;;;;;5.73;2.87;;;;;;;-3.34;83.30;96138.61;1694489;85;21030;-67
2022/11/29 06:04:50;;;;;;;5.53;2.70;;;;;;;-3.28;83.45;96142.77;1694426;85;21074;-69
2022/11/29 06:07:22;;;;;;;5.17;3.20;;;;;;;-3.30;83.15;96135.74;1694159;85;21081;-66
2022/11/29 06:10:17;;;;;;;7.87;3.60;;;;;;;-3.41;83.00;96142.16;1694579;85;21050;-68
2022/11/29 06:13:07;;;;;;;20.50;11.40;;;;;;;-3.49;83.19;96140.11;1694011;85;21485;-64
2022/11/29 06:15:48;;;;;;;19.90;10.73;;;;;;;-3.39;83.59;96136.66;1693863;85;21038;-68
2022/11/29 06:18:46;;;;;;;22.73;12.20;;;;;;;-3.43;82.97;96143.78;1693781;85;20991;-70
2022/11/29 06:21:53;;;;;;;30.53;14.83;;;;;;;-3.34;83.88;96146.35;1694376;85;21555;-72
2022/11/29 06:24:44;;;;;;;38.30;17.27;;;;;;;-3.24;83.39;96153.21;1694212;84;21556;-69
2022/11/29 06:27:43;;;;;;;30.47;14.43;;;;;;;-3.19;83.06;96146.13;1694281;85;21065;-67
2022/11/29 06:30:14;;;;;;;30.77;15.07;;;;;;;-3.06;83.26;96139.38;1693918;85;21509;-69
2022/11/29 06:32:55;;;;;;;50.93;25.60;;;;;;;-3.05;82.19;96138.58;1694229;85;21025;-66
2022/11/29 06:35:51;;;;;;;44.83;23.20;;;;;;;-3.02;82.40;96141.70;1693466;85;21038;-64
2022/11/29 06:38:28;;;;;;;48.60;28.83;;;;;;;-3.05;81.62;96137.28;1693450;85;21086;-70
2022/11/29 06:40:57;;;;;;;59.63;30.97;;;;;;;-2.95;82.75;96138.94;1693801;85;21026;-67
2022/11/29 06:43:25;;;;;;;38.00;22.07;;;;;;;-2.98;81.89;96135.82;1694244;85;21086;-67
2022/11/29 06:46:03;;;;;;;33.87;19.00;;;;;;;-3.02;81.78;96138.20;1694221;85;21003;-73
2022/11/29 06:48:53;;;;;;;19.13;9.60;;;;;;;-3.06;82.10;96135.92;1694035;85;21364;-68
2022/11/29 06:51:35;;;;;;;12.57;7.03;;;;;;;-3.06;82.65;96143.25;1643565;87;21062;-71
2022/11/29 06:54:32;;;;;;;6.90;4.10;;;;;;;-2.98;82.69;96143.98;1682906;85;21150;-69
2022/11/29 06:57:23;;;;;;;6.57;3.90;;;;;;;-2.94;82.71;96136.44;1694246;85;21074;-68
2022/11/29 07:00:02;;;;;;;9.57;5.77;;;;;;;-2.86;82.76;96132.88;1685254;85;21011;-67
2022/11/29 07:03:01;;;;;;;25.30;14.77;;;;;;;-2.81;83.03;96133.08;1694244;85;21053;-66
2022/11/29 07:05:34;;;;;;;16.73;10.03;;;;;;;-2.69;83.66;96134.45;1694431;85;21037;-66
2022/11/29 07:08:05;;;;;;;10.50;6.20;;;;;;;-2.64;83.27;96132.06;1694586;85;21469;-67
2022/11/29 07:10:37;;;;;;;17.53;10.87;;;;;;;-2.62;83.12;96132.59;1694575;85;21070;-70
2022/11/29 07:13:04;;;;;;;9.50;6.87;;;;;;;-2.57;83.15;96133.17;1694581;85;21027;-68
2022/11/29 07:15:31;;;;;;;16.43;7.57;;;;;;;-2.49;83.47;96138.27;1694435;85;21066;-72
2022/11/29 07:18:06;;;;;;;53.93;23.13;;;;;;;-2.45;83.16;96136.25;1694619;85;21030;-68
2022/11/29 07:21:10;;;;;;;27.83;13.40;;;;;;;-2.42;83.21;96132.48;1693688;85;21078;-70
2022/11/29 07:23:49;;;;;;;17.40;10.07;;;;;;;-2.30;83.66;96130.39;1694326;84;21090;-72
2022/11/29 07:26:34;;;;;;;35.63;17.20;;;;;;;-2.13;83.85;96131.05;1695388;85;21115;-74
2022/11/29 07:29:34;;;;;;;23.53;12.63;;;;;;;-1.94;84.38;96126.20;1691263;85;21017;-71
2022/11/29 07:32:40;;;;;;;25.87;13.53;;;;;;;-1.71;84.55;96130.92;1695383;85;21009;-69
2022/11/29 07:35:33;;;;;;;17.57;10.17;;;;;;;-1.49;84.14;96122.63;1695616;85;21060;-71
2022/11/29 07:38:17;;;;;;;15.43;10.17;;;;;;;-1.31;83.03;96124.61;1702074;84;21070;-70
2022/11/29 07:41:04;;;;;;;26.87;13.07;;;;;;;-1.24;82.60;96130.44;1700975;84;21061;-72
2022/11/29 07:43:51;;;;;;;38.10;18.27;;;;;;;-1.10;82.92;96125.77;1701541;84;21039;-70
2022/11/29 07:46:17;;;;;;;77.57;28.13;;;;;;;-1.00;82.26;96130.85;1702800;84;21095;-71
2022/11/29 07:48:44;;;;;;;29.50;13.53;;;;;;;-0.93;82.34;96125.93;1702739;84;21121;-69
2022/11/29 07:51:11;;;;;;;30.13;17.00;;;;;;;-0.87;81.89;96126.55;1703058;84;21085;-70
2022/11/29 07:53:42;;;;;;;36.77;19.43;;;;;;;-0.81;81.84;96122.84;1703017;84;21532;-68
2022/11/29 07:56:09;;;;;;;22.93;12.53;;;;;;;-0.78;81.63;96127.25;1702754;84;21106;-68
2022/11/29 07:58:35;;;;;;;43.00;20.37;;;;;;;-0.72;81.63;96124.47;1702888;84;21090;-71
2022/11/29 08:01:02;;;;;;;25.73;13.77;;;;;;;-0.65;81.65;96121.67;1702807;84;21034;-73
2022/11/29 08:03:29;;;;;;;32.97;15.03;;;;;;;-0.66;80.20;96116.91;1702648;84;21081;-75
2022/11/29 08:05:56;;;;;;;36.10;22.10;;;;;;;-0.63;79.72;96116.52;1702799;84;21030;-69
2022/11/29 08:08:22;;;;;;;106.37;50.70;;;;;;;-0.55;80.74;96121.56;1702807;84;21066;-69
2022/11/29 08:10:49;;;;;;;39.40;20.53;;;;;;;-0.42;79.23;96125.00;1708832;82;20990;-70
2022/11/29 08:13:19;;;;;;;16.50;9.33;;;;;;;-0.36;78.89;96121.72;1703386;82;20978;-69
2022/11/29 08:15:47;;;;;;;19.50;11.67;;;;;;;-0.25;79.46;96117.34;1678960;83;21552;-67
2022/11/29 08:18:15;;;;;;;15.53;9.23;;;;;;;-0.09;80.26;96118.69;1711128;82;20970;-66
2022/11/29 08:20:43;;;;;;;15.63;8.87;;;;;;;0.07;80.25;96116.13;1744121;82;21044;-68
2022/11/29 08:23:12;;;;;;;16.63;9.60;;;;;;;0.22;79.15;96122.20;1744297;82;21493;-66
2022/11/29 08:25:39;;;;;;;14.30;9.53;;;;;;;0.35;79.34;96110.46;1744478;82;21104;-68
2022/11/29 08:28:06;;;;;;;19.93;11.27;;;;;;;0.47;79.12;96120.33;1744224;82;21001;-66
2022/11/29 08:30:33;;;;;;;14.53;9.07;;;;;;;0.55;79.14;96121.42;1744567;82;21028;-65
2022/11/29 08:32:59;;;;;;;16.77;10.77;;;;;;;0.66;78.84;96113.53;1744692;82;21048;-66
2022/11/29 08:35:26;;;;;;;16.60;8.80;;;;;;;0.78;78.65;96113.87;1744745;82;21004;-66
2022/11/29 08:37:54;;;;;;;45.43;25.63;;;;;;;0.83;77.60;96107.48;1744615;82;21009;-66
2022/11/29 08:40:21;;;;;;;36.67;19.93;;;;;;;0.88;77.57;96102.41;1744404;82;21504;-64
2022/11/29 08:42:48;;;;;;;37.07;22.00;;;;;;;0.88;75.58;96103.70;1744659;82;21060;-63
2022/11/29 08:45:15;;;;;;;28.83;18.00;;;;;;;0.97;75.62;96095.74;1744750;82;20993;-65
2022/11/29 08:47:42;;;;;;;52.13;31.80;;;;;;;1.02;75.60;96094.14;1742189;82;21109;-65
2022/11/29 08:50:16;;;;;;;25.03;15.30;;;;;;;1.10;75.53;96094.77;1714950;82;21011;-65
2022/11/29 08:55:41;;;;;;;13.50;7.87;;;;;;;1.22;73.56;96095.95;1703221;84;21469;-66
2022/11/29 08:58:12;;;;;;;14.07;9.17;;;;;;;1.33;74.69;96098.82;1723918;82;21134;-66
2022/11/29 09:00:42;;;;;;;14.30;9.83;;;;;;;1.41;74.53;96096.41;1738505;82;21047;-68
2022/11/29 09:05:56;;;;;;;13.60;8.27;;;;;;;1.53;72.57;96089.34;1727991;82;21003;-67
2022/11/29 09:08:22;;;;;;;13.53;9.13;;;;;;;1.53;72.24;96087.61;1721291;83;21450;-67
2022/11/29 09:10:49;;;;;;;13.30;7.43;;;;;;;1.51;71.63;96087.98;1709010;84;21061;-66
2022/11/29 09:13:17;;;;;;;23.80;13.37;;;;;;;1.52;72.12;96084.56;1757119;81;21051;-65
2022/11/29 09:15:43;;;;;;;17.63;9.70;;;;;;;1.63;72.68;96088.71;1757581;81;20991;-65
2022/11/29 09:18:10;;;;;;;21.00;11.90;;;;;;;1.66;72.08;96083.58;1746279;82;21454;-65
2022/11/29 09:20:37;;;;;;;40.30;21.77;;;;;;;1.66;71.94;96080.58;1719679;83;21082;-67
2022/11/29 09:23:04;;;;;;;37.00;21.33;;;;;;;1.71;72.91;96079.36;1720526;83;21451;-67
2022/11/29 09:25:30;;;;;;;42.73;21.53;;;;;;;1.77;72.39;96078.22;1720701;83;21059;-73
2022/11/29 09:28:01;;;;;;;63.50;30.87;;;;;;;1.90;72.41;96076.34;1720912;83;21146;-71
2022/11/29 09:30:32;;;;;;;45.40;23.67;;;;;;;1.99;73.00;96079.59;1720303;83;21055;-66
2022/11/29 09:33:04;;;;;;;45.23;22.80;;;;;;;2.10;72.51;96080.69;1721414;83;21008;-65
2022/11/29 09:35:29;;;;;;;38.63;17.73;;;;;;;2.14;71.85;96073.81;1720032;83;21071;-63
2022/11/29 09:37:55;;;;;;;26.93;15.20;;;;;;;2.25;72.06;96074.06;1720725;81;21008;-69
2022/11/29 09:40:45;;;;;;;19.70;11.83;;;;;;;2.40;71.88;96065.70;1749592;81;21015;-63
2022/11/29 09:43:32;;;;;;;11.70;6.43;;;;;;;2.65;72.74;96067.94;1750033;82;20985;-63
2022/11/29 09:46:23;;;;;;;11.80;7.17;;;;;;;3.18;72.29;96051.53;1750949;82;21052;-65
2022/11/29 09:49:34;;;;;;;15.10;8.17;;;;;;;3.62;69.17;96048.33;1749162;82;21203;-63
2022/11/29 09:52:24;;;;;;;14.50;9.07;;;;;;;4.06;70.04;96045.94;1754179;82;21051;-66
2022/11/29 09:55:09;;;;;;;18.43;10.67;;;;;;;4.55;67.46;96030.87;1752894;82;21517;-65
2022/11/29 09:57:37;;;;;;;17.13;8.20;;;;;;;4.94;65.71;96040.03;1738856;82;21032;-63
2022/11/29 10:00:09;;;;;;;13.03;7.93;;;;;;;5.24;63.86;96031.61;1749547;82;21027;-61
2022/11/29 10:02:46;;;;;;;16.70;9.78;;;;;;;5.27;62.61;96039.91;1746473;82;21025;-67
2022/11/29 10:05:27;;;;;;;12.30;7.53;;;;;;;5.51;62.66;96040.10;1747364;82;21003;-61
2022/11/29 10:07:59;;;;;;;11.37;7.33;;;;;;;5.75;61.81;96035.94;1747923;82;21558;-65
2022/11/29 10:10:42;;;;;;;12.70;8.38;;;;;;;6.06;63.65;96039.66;1747624;82;21027;-67
2022/11/29 10:13:25;;;;;;;13.75;8.63;;;;;;;6.36;62.38;96036.77;1747372;82;21135;-68
2022/11/29 10:15:57;;;;;;;12.73;8.33;;;;;;;6.68;63.13;96026.42;1744824;82;21142;-68
2022/11/29 10:18:37;;;;;;;13.15;8.55;;;;;;;7.11;61.27;96019.97;1746218;82;20996;-68
2022/11/29 10:21:20;;;;;;;13.53;9.10;;;;;;;7.39;60.35;96025.25;1745914;82;21064;-68
2022/11/29 10:23:54;;;;;;;12.50;9.00;;;;;;;7.45;58.04;96023.93;1746589;82;21119;-69
2022/11/29 10:26:21;;;;;;;17.92;10.82;;;;;;;7.46;57.57;96018.69;1719427;82;21122;-69
2022/11/29 10:28:48;;;;;;;13.83;8.68;;;;;;;7.50;57.34;96017.80;1749753;81;21027;-69
2022/11/29 10:31:35;;;;;;;11.57;8.80;;;;;;;7.98;59.51;96019.95;1749380;82;21048;-69
2022/11/29 10:34:12;;;;;;;12.82;8.45;;;;;;;8.40;58.89;96018.58;1750397;82;21005;-68
2022/11/29 10:36:58;;;;;;;13.00;9.18;;;;;;;8.76;56.33;96010.09;1750168;82;21091;-69
2022/11/29 10:39:43;;;;;;;12.95;8.88;;;;;;;9.03;55.78;96008.63;1750493;82;21502;-68
2022/11/29 10:45:42;;;;;;;12.98;8.53;;;;;;;9.21;52.92;96005.00;1750223;82;21070;-68
2022/11/29 10:48:12;;;;;;;12.98;9.15;;;;;;;9.54;53.80;96004.33;1748907;82;21474;-69
2022/11/29 10:50:43;;;;;;;13.30;8.80;;;;;;;9.57;51.81;96000.34;1749420;82;21115;-70
2022/11/29 10:53:17;;;;;;;13.05;8.80;;;;;;;9.68;52.64;96003.78;1750576;82;21120;-70
2022/11/29 10:56:18;;;;;;;12.20;8.53;;;;;;;10.00;52.83;96000.41;1749967;82;21510;-71
2022/11/29 10:59:06;;;;;;;14.10;9.70;;;;;;;10.19;52.86;96005.48;1750762;82;21115;-69
2022/11/29 11:01:42;;;;;;;12.15;9.20;;;;;;;10.31;50.15;95996.61;1742432;82;21033;-69
2022/11/29 11:04:16;;;;;;;13.28;9.10;;;;;;;9.99;50.03;95999.98;1724584;83;21035;-69
2022/11/29 11:06:55;;;;;;;14.45;10.45;;;;;;;9.81;49.80;96002.36;1745093;82;21528;-69
2022/11/29 11:09:41;;;;;;;14.03;9.63;;;;;;;9.55;49.66;95992.92;1745107;82;21027;-69
2022/11/29 11:12:16;;;;;;;13.90;9.83;;;;;;;9.34;50.65;95999.20;1743709;82;21030;-69
2022/11/29 11:14:45;;;;;;;15.30;10.13;;;;;;;9.23;50.57;96005.01;1745121;82;21058;-70
2022/11/29 11:17:25;;;;;;;19.60;12.85;;;;;;;9.17;50.78;96004.61;1744858;82;21018;-70
2022/11/29 11:20:08;;;;;;;13.62;10.00;;;;;;;9.33;52.50;96003.19;1744785;82;21042;-70
2022/11/29 11:22:38;;;;;;;15.95;10.98;;;;;;;9.33;51.74;96001.42;1745073;82;21031;-70
2022/11/29 11:25:25;;;;;;;27.85;13.18;;;;;;;8.88;51.30;96004.78;1745084;82;21031;-70
2022/11/29 11:27:54;;;;;;;18.95;11.63;;;;;;;9.02;51.84;96001.63;1743229;82;21174;-70
2022/11/29 11:30:24;;;;;;;16.77;11.85;;;;;;;8.90;51.16;96006.96;1742190;82;21011;-70
2022/11/29 11:33:30;;;;;;;14.47;10.38;;;;;;;8.80;51.41;96000.87;1741844;82;21019;-70
2022/11/29 11:36:23;;;;;;;17.85;11.90;;;;;;;8.75;52.00;96009.67;1728757;83;21035;-69
2022/11/29 11:39:07;;;;;;;15.17;10.70;;;;;;;8.61;52.38;96004.46;1688354;85;21523;-68
2022/11/29 11:44:40;;;;;;;17.62;11.73;;;;;;;8.00;53.13;96016.02;1734204;83;21031;-68
2022/11/29 11:47:23;;;;;;;21.95;13.22;;;;;;;8.12;53.51;96016.44;1734299;83;21450;-68
2022/11/29 11:50:01;;;;;;;30.52;17.32;;;;;;;8.12;54.01;96015.13;1734695;83;21024;-68
2022/11/29 11:52:53;;;;;;;37.90;18.98;;;;;;;8.37;53.55;96008.05;1734345;83;21008;-68
2022/11/29 11:55:38;;;;;;;33.02;17.27;;;;;;;8.65;53.21;96008.84;1734663;83;21051;-68
2022/11/29 11:58:15;;;;;;;27.30;16.52;;;;;;;9.25;52.64;96004.56;1734453;83;21000;-68
2022/11/29 12:01:12;;;;;;;26.52;15.38;;;;;;;9.90;52.53;96004.89;1734096;83;21111;-68
2022/11/29 12:03:50;;;;;;;36.42;19.65;;;;;;;10.17;49.38;95995.84;1727356;83;21561;-68
2022/11/29 12:06:40;;;;;;;37.67;21.85;;;;;;;10.51;48.07;95993.74;1730109;83;21038;-68
2022/11/29 12:09:47;;;;;;;22.45;14.07;;;;;;;10.51;48.07;95993.74;1734009;83;21035;-68
2022/11/29 12:12:28;;;;;;;18.23;12.35;;;;;;;10.22;48.87;95994.48;1734203;83;21102;-68
2022/11/29 12:15:06;;;;;;;17.23;12.50;;;;;;;9.88;49.99;96008.88;1734462;82;21023;-68
2022/11/29 12:17:44;;;;;;;24.45;14.70;;;;;;;9.88;49.99;96008.88;1734517;83;21020;-70
2022/11/29 12:20:28;;;;;;;26.75;18.12;;;;;;;9.22;51.15;96004.14;1733991;83;21115;-70
2022/11/29 12:23:10;;;;;;;;;;;;;;;9.14;51.83;96003.30;1737020;83;21071;-69
2022/11/29 12:25:59;;;;;;;29.65;18.17;;;;;;;9.69;52.67;95991.02;1733798;83;20104;-69
2022/11/29 12:28:32;;;;;;;24.18;16.07;;;;;;;10.49;51.04;95987.60;1727939;83;21047;-69
2022/11/29 12:31:23;;;;;;;;;;;;;;;10.39;49.00;95986.83;1726951;83;21079;-69
2022/11/29 12:34:15;;;;;;;25.02;15.58;;;;;;;10.27;49.20;95996.16;1724487;83;20112;-69
2022/11/29 12:37:02;;;;;;;25.25;16.67;;;;;;;10.19;49.54;95990.11;1724375;83;20996;-69
2022/11/29 12:40:08;;;;;;;28.92;18.65;;;;;;;10.16;49.91;95988.38;1724456;83;21055;-69
2022/11/29 12:43:14;;;;;;;25.20;16.27;;;;;;;10.05;49.37;95992.00;1724197;83;21545;-70